createdAt,value
2023-04-05T00:02:14.281Z,100351.67
2023-04-05T00:04:52.535Z,100352.91
2023-04-05T00:07:26.572Z,100348.60
2023-04-05T00:09:58.658Z,100346.48
2023-04-05T00:12:30.860Z,100340.88
2023-04-05T00:15:04.811Z,100338.49
2023-04-05T00:17:36.780Z,100339.27
2023-04-05T00:20:11.583Z,100338.54
2023-04-05T00:22:44.980Z,100332.42
2023-04-05T00:25:17.554Z,100333.40
2023-04-05T00:27:49.521Z,100329.34
2023-04-05T00:30:21.886Z,100330.88
2023-04-05T00:32:53.997Z,100327.77
2023-04-05T00:35:28.227Z,100332.81
2023-04-05T00:38:00.711Z,100334.90
2023-04-05T00:40:33.117Z,100336.00
2023-04-05T00:43:05.310Z,100335.52
2023-04-05T00:45:37.442Z,100337.58
2023-04-05T00:48:09.963Z,100332.30
2023-04-05T00:50:43.478Z,100333.48
2023-04-05T00:53:16.360Z,100328.27
2023-04-05T00:55:53.247Z,100322.04
2023-04-05T00:58:25.624Z,100320.81
2023-04-05T01:01:06.817Z,100319.61
2023-04-05T01:03:45.589Z,100315.16
2023-04-05T01:06:45.405Z,100312.66
2023-04-05T01:09:27.830Z,100312.16
2023-04-05T01:12:04.298Z,100310.42
2023-04-05T01:14:44.449Z,100307.45
2023-04-05T01:17:22.365Z,100312.25
2023-04-05T01:19:59.488Z,100311.38
2023-04-05T01:23:06.341Z,100308.83
2023-04-05T01:26:31.318Z,100299.61
2023-04-05T01:29:23.948Z,100296.30
2023-04-05T01:32:02.142Z,100297.09
2023-04-05T01:34:42.164Z,100290.66
2023-04-05T01:37:17.055Z,100288.48
2023-04-05T01:39:50.792Z,100286.44
2023-04-05T01:42:27.406Z,100286.84
2023-04-05T01:45:00.520Z,100286.77
2023-04-05T01:47:32.907Z,100285.60
2023-04-05T01:50:05.209Z,100279.56
2023-04-05T01:52:37.319Z,100279.77
2023-04-05T01:55:10.296Z,100276.46
2023-04-05T01:57:42.284Z,100275.59
2023-04-05T02:00:16.294Z,100276.35
2023-04-05T02:02:49.056Z,100276.70
2023-04-05T02:05:21.216Z,100274.74
2023-04-05T02:07:53.236Z,100272.88
2023-04-05T02:10:26.045Z,100269.94
2023-04-05T02:12:59.687Z,100269.36
2023-04-05T02:15:34.215Z,100269.59
2023-04-05T02:18:08.138Z,100271.67
2023-04-05T02:20:40.459Z,100263.79
2023-04-05T02:23:12.874Z,100261.77
2023-04-05T02:25:45.000Z,100261.48
2023-04-05T02:28:17.164Z,100264.23
2023-04-05T02:30:49.131Z,100263.86
2023-04-05T02:33:22.692Z,100263.46
2023-04-05T02:35:57.122Z,100264.56
2023-04-05T02:38:29.128Z,100262.95
2023-04-05T02:41:01.229Z,100261.30
2023-04-05T02:43:35.381Z,100261.64
2023-04-05T02:46:07.642Z,100260.14
2023-04-05T02:48:43.504Z,100262.43
2023-04-05T02:51:16.364Z,100261.86
2023-04-05T02:53:48.487Z,100259.23
2023-04-05T02:56:22.229Z,100258.04
2023-04-05T02:58:54.656Z,100258.37
2023-04-05T03:01:29.517Z,100258.06
2023-04-05T03:04:02.414Z,100255.90
2023-04-05T03:06:36.063Z,100254.88
2023-04-05T03:09:09.237Z,100251.07
2023-04-05T03:11:42.299Z,100252.59
2023-04-05T03:14:14.914Z,100251.29
2023-04-05T03:16:50.763Z,100248.83
2023-04-05T03:19:33.572Z,100245.45
2023-04-05T03:22:14.622Z,100249.75
2023-04-05T03:24:46.684Z,100245.08
2023-04-05T03:27:20.090Z,100244.37
2023-04-05T03:30:21.793Z,100245.79
2023-04-05T03:33:01.516Z,100246.31
2023-04-05T03:35:45.661Z,100246.98
2023-04-05T03:38:18.285Z,100243.17
2023-04-05T03:41:16.511Z,100245.61
2023-04-05T03:43:49.089Z,100244.32
2023-04-05T03:46:21.471Z,100246.61
2023-04-05T03:48:53.839Z,100237.30
2023-04-05T03:51:26.335Z,100242.48
2023-04-05T03:53:58.412Z,100234.71
2023-04-05T03:56:33.585Z,100232.44
2023-04-05T03:59:14.142Z,100232.56
2023-04-05T04:01:46.265Z,100231.74
2023-04-05T04:04:18.349Z,100235.60
2023-04-05T04:06:52.811Z,100236.54
2023-04-05T04:09:30.012Z,100233.02
2023-04-05T04:12:06.608Z,100231.88
2023-04-05T04:14:41.143Z,100234.94
2023-04-05T04:17:37.084Z,100237.59
2023-04-05T04:20:30.401Z,100230.42
2023-04-05T04:23:14.789Z,100229.48
2023-04-05T04:25:59.280Z,100230.95
2023-04-05T04:28:50.508Z,100231.77
2023-04-05T04:31:28.582Z,100233.17
2023-04-05T04:34:30.874Z,100235.60
2023-04-05T04:37:37.762Z,100240.87
2023-04-05T04:40:48.002Z,100241.86
2023-04-05T04:43:29.209Z,100242.38
2023-04-05T04:46:19.236Z,100236.83
2023-04-05T04:49:06.176Z,100237.81
2023-04-05T04:51:40.648Z,100242.16
2023-04-05T04:54:13.389Z,100244.69
2023-04-05T04:56:46.659Z,100244.05
2023-04-05T04:59:18.751Z,100242.90
2023-04-05T05:01:50.836Z,100246.41
2023-04-05T05:04:23.071Z,100249.05
2023-04-05T05:06:56.140Z,100250.41
2023-04-05T05:09:28.111Z,100247.07
2023-04-05T05:12:03.449Z,100247.05
2023-04-05T05:14:35.483Z,100248.29
2023-04-05T05:17:08.764Z,100250.21
2023-04-05T05:19:41.510Z,100249.33
2023-04-05T05:22:13.598Z,100253.30
2023-04-05T05:24:46.753Z,100253.20
2023-04-05T05:27:19.099Z,100256.33
2023-04-05T05:29:51.364Z,100260.46
2023-04-05T05:32:23.522Z,100261.65
2023-04-05T05:34:55.575Z,100261.87
2023-04-05T05:37:34.351Z,100263.15
2023-04-05T05:40:07.446Z,100259.98
2023-04-05T05:42:39.488Z,100263.66
2023-04-05T05:45:13.585Z,100262.19
2023-04-05T05:47:45.864Z,100260.59
2023-04-05T05:50:20.790Z,100261.26
2023-04-05T05:52:53.209Z,100259.66
2023-04-05T05:55:25.272Z,100261.77
2023-04-05T05:57:57.243Z,100257.10
2023-04-05T06:00:29.289Z,100257.02
2023-04-05T06:03:01.865Z,100255.42
2023-04-05T06:05:34.057Z,100256.09
2023-04-05T06:08:06.500Z,100256.20
2023-04-05T06:10:40.601Z,100257.15
2023-04-05T06:13:13.004Z,100252.67
2023-04-05T06:15:45.267Z,100252.09
2023-04-05T06:18:18.087Z,100249.53
2023-04-05T06:20:50.170Z,100251.14
2023-04-05T06:23:22.186Z,100254.92
2023-04-05T06:25:54.465Z,100252.34
2023-04-05T06:28:26.598Z,100252.08
2023-04-05T06:30:59.469Z,100248.70
2023-04-05T06:33:31.772Z,100253.23
2023-04-05T06:36:03.970Z,100255.86
2023-04-05T06:38:36.700Z,100258.84
2023-04-05T06:41:08.806Z,100257.09
2023-04-05T06:43:40.977Z,100260.91
2023-04-05T06:46:13.955Z,100258.92
2023-04-05T06:48:47.983Z,100262.02
2023-04-05T06:51:20.222Z,100266.92
2023-04-05T06:53:52.580Z,100261.61
2023-04-05T06:56:24.688Z,100259.39
2023-04-05T06:58:59.137Z,100256.88
2023-04-05T07:01:32.009Z,100255.75
2023-04-05T07:04:04.590Z,100257.41
2023-04-05T07:06:39.168Z,100256.78
2023-04-05T07:09:11.219Z,100265.13
2023-04-05T07:11:43.298Z,100266.86
2023-04-05T07:14:15.377Z,100268.56
2023-04-05T07:16:48.641Z,100269.64
2023-04-05T07:19:22.548Z,100271.52
2023-04-05T07:21:55.233Z,100268.73
2023-04-05T07:24:27.441Z,100269.91
2023-04-05T07:26:59.611Z,100267.92
2023-04-05T07:29:31.989Z,100271.86
2023-04-05T07:32:04.686Z,100270.23
2023-04-05T07:34:37.263Z,100270.34
2023-04-05T07:37:09.632Z,100270.63
2023-04-05T07:39:41.670Z,100271.04
2023-04-05T07:42:13.762Z,100270.02
2023-04-05T07:44:45.986Z,100269.20
2023-04-05T07:47:18.133Z,100266.42
2023-04-05T07:49:50.272Z,100266.90
2023-04-05T07:52:22.303Z,100262.77
2023-04-05T07:54:54.928Z,100263.55
2023-04-05T07:57:27.584Z,100261.77
2023-04-05T07:59:59.729Z,100265.14
2023-04-05T08:02:31.982Z,100267.29
2023-04-05T08:05:05.521Z,100263.90
2023-04-05T08:07:37.869Z,100264.77
2023-04-05T08:10:11.260Z,100264.75
2023-04-05T08:12:43.257Z,100266.81
2023-04-05T08:15:15.491Z,100267.18
2023-04-05T08:17:47.575Z,100265.42
2023-04-05T08:20:19.792Z,100261.66
2023-04-05T08:22:52.091Z,100265.96
2023-04-05T08:25:24.172Z,100269.33
2023-04-05T08:27:56.432Z,100267.83
2023-04-05T08:30:28.796Z,100267.70
2023-04-05T08:33:01.202Z,100267.04
2023-04-05T08:35:33.448Z,100268.57
2023-04-05T08:38:06.902Z,100268.25
2023-04-05T08:40:44.490Z,100264.05
2023-04-05T08:43:36.267Z,100261.98
2023-04-05T08:46:11.309Z,100255.98
2023-04-05T08:48:43.530Z,100259.12
2023-04-05T08:51:19.394Z,100255.42
2023-04-05T08:53:51.868Z,100256.29
2023-04-05T08:56:27.367Z,100252.59
2023-04-05T08:59:05.866Z,100249.52
2023-04-05T09:01:43.312Z,100254.27
2023-04-05T09:04:19.091Z,100250.79
2023-04-05T09:06:52.959Z,100246.51
2023-04-05T09:09:25.813Z,100241.57
2023-04-05T09:11:58.955Z,100243.46
2023-04-05T09:14:34.671Z,100243.48
2023-04-05T09:17:07.515Z,100241.79
2023-04-05T09:19:39.513Z,100242.51
2023-04-05T09:22:11.841Z,100236.27
2023-04-05T09:24:47.413Z,100234.02
2023-04-05T09:27:23.714Z,100233.55
2023-04-05T09:30:22.238Z,100230.42
2023-04-05T09:32:56.462Z,100224.73
2023-04-05T09:35:31.310Z,100226.83
2023-04-05T09:38:05.311Z,100225.91
2023-04-05T09:40:47.769Z,100221.26
2023-04-05T09:43:48.384Z,100223.54
2023-04-05T09:46:32.804Z,100223.21
2023-04-05T09:49:07.239Z,100221.02
2023-04-05T09:51:40.668Z,100212.21
2023-04-05T09:54:15.721Z,100208.56
2023-04-05T09:56:58.491Z,100205.69
2023-04-05T09:59:31.472Z,100204.75
2023-04-05T10:02:04.200Z,100200.31
2023-04-05T10:04:43.288Z,100202.80
2023-04-05T10:07:18.604Z,100203.29
2023-04-05T10:09:51.238Z,100204.93
2023-04-05T10:12:28.132Z,100200.11
2023-04-05T10:15:01.032Z,100202.52
2023-04-05T10:17:39.782Z,100196.60
2023-04-05T10:20:17.891Z,100200.91
2023-04-05T10:23:00.986Z,100203.33
2023-04-05T10:25:47.309Z,100201.38
2023-04-05T10:28:30.376Z,100196.16
2023-04-05T10:31:11.451Z,100193.41
2023-04-05T10:33:49.031Z,100191.17
2023-04-05T10:36:38.330Z,100187.73
2023-04-05T10:39:15.094Z,100181.95
2023-04-05T10:41:54.063Z,100175.36
2023-04-05T10:44:27.063Z,100173.44
2023-04-05T10:47:00.364Z,100167.83
2023-04-05T10:49:39.533Z,100165.59
2023-04-05T10:52:12.521Z,100163.70
2023-04-05T10:54:46.142Z,100162.17
2023-04-05T10:57:21.062Z,100162.73
2023-04-05T10:59:55.016Z,100159.71
2023-04-05T11:02:29.751Z,100157.93
2023-04-05T11:05:06.986Z,100155.41
2023-04-05T11:07:50.687Z,100154.13
2023-04-05T11:10:24.511Z,100151.80
2023-04-05T11:13:12.667Z,100149.23
2023-04-05T11:15:44.772Z,100142.88
2023-04-05T11:18:25.880Z,100144.48
2023-04-05T11:21:10.822Z,100141.67
2023-04-05T11:24:03.874Z,100144.31
2023-04-05T11:26:54.338Z,100145.99
2023-04-05T11:29:54.638Z,100148.91
2023-04-05T11:32:39.671Z,100146.06
2023-04-05T11:35:17.898Z,100144.48
2023-04-05T11:38:10.413Z,100142.98
2023-04-05T11:40:43.753Z,100139.14
2023-04-05T11:43:16.324Z,100140.61
2023-04-05T11:45:48.408Z,100141.45
2023-04-05T11:48:23.603Z,100145.66
2023-04-05T11:50:58.170Z,100144.88
2023-04-05T11:53:30.182Z,100143.50
2023-04-05T11:56:12.922Z,100143.96
2023-04-05T11:58:45.900Z,100147.39
2023-04-05T12:01:21.031Z,100146.69
2023-04-05T12:03:58.658Z,100145.80
2023-04-05T12:06:31.475Z,100146.20
2023-04-05T12:09:08.302Z,100146.70
2023-04-05T12:11:41.344Z,100142.79
2023-04-05T12:14:13.746Z,100138.98
2023-04-05T12:16:52.839Z,100139.03
2023-04-05T12:19:31.139Z,100133.91
2023-04-05T12:22:03.407Z,100131.11
2023-04-05T12:24:35.829Z,100125.40
2023-04-05T12:27:08.877Z,100129.46
2023-04-05T12:29:41.843Z,100128.99
2023-04-05T12:32:13.910Z,100135.81
2023-04-05T12:34:50.908Z,100128.23
2023-04-05T12:37:23.645Z,100125.98
2023-04-05T12:39:57.328Z,100117.60
2023-04-05T12:42:35.845Z,100124.09
2023-04-05T12:45:12.728Z,100124.37
2023-04-05T12:47:58.364Z,100121.40
2023-04-05T12:50:32.458Z,100110.51
2023-04-05T12:53:08.326Z,100110.14
2023-04-05T12:55:51.971Z,100111.88
2023-04-05T12:58:25.308Z,100111.23
2023-04-05T13:00:57.434Z,100114.76
2023-04-05T13:03:30.029Z,100117.66
2023-04-05T13:06:02.504Z,100115.41
2023-04-05T13:08:34.681Z,100117.38
2023-04-05T13:11:06.805Z,100123.55
2023-04-05T13:13:38.894Z,100129.46
2023-04-05T13:16:11.099Z,100126.34
2023-04-05T13:18:43.247Z,100123.64
2023-04-05T13:21:15.585Z,100122.86
2023-04-05T13:23:47.667Z,100123.55
2023-04-05T13:26:19.731Z,100124.73
2023-04-05T13:28:51.960Z,100121.95
2023-04-05T13:31:24.173Z,100123.49
2023-04-05T13:33:56.464Z,100120.43
2023-04-05T13:36:28.777Z,100118.48
2023-04-05T13:39:01.086Z,100118.86
2023-04-05T13:41:33.440Z,100120.57
2023-04-05T13:44:06.705Z,100123.85
2023-04-05T13:46:39.097Z,100118.36
2023-04-05T13:49:11.339Z,100118.09
2023-04-05T13:51:43.560Z,100116.94
2023-04-05T13:54:16.194Z,100116.73
2023-04-05T13:56:48.268Z,100117.36
2023-04-05T13:59:20.705Z,100118.34
2023-04-05T14:01:54.844Z,100112.34
2023-04-05T14:04:27.204Z,100114.69
2023-04-05T14:06:59.238Z,100118.21
2023-04-05T14:09:32.623Z,100119.20
2023-04-05T14:12:04.852Z,100121.80
2023-04-05T14:14:37.419Z,100120.16
2023-04-05T14:17:11.730Z,100113.38
2023-04-05T14:19:44.223Z,100116.95
2023-04-05T14:22:19.593Z,100116.77
2023-04-05T14:24:51.918Z,100116.46
2023-04-05T14:27:27.173Z,100112.11
2023-04-05T14:29:59.604Z,100111.45
2023-04-05T14:32:33.800Z,100109.54
2023-04-05T14:35:06.815Z,100109.48
2023-04-05T14:37:39.049Z,100111.88
2023-04-05T14:40:12.878Z,100110.42
2023-04-05T14:42:49.613Z,100118.09
2023-04-05T14:45:23.693Z,100120.74
2023-04-05T14:47:56.302Z,100117.02
2023-04-05T14:50:32.824Z,100117.73
2023-04-05T14:53:05.163Z,100120.00
2023-04-05T14:55:39.568Z,100124.50
2023-04-05T14:58:18.187Z,100123.95
2023-04-05T15:00:51.307Z,100120.81
2023-04-05T15:03:24.044Z,100120.02
2023-04-05T15:05:57.255Z,100115.02
2023-04-05T15:08:29.803Z,100104.27
2023-04-05T15:11:02.150Z,100103.95
2023-04-05T15:13:34.505Z,100098.27
2023-04-05T15:16:07.560Z,100094.08
2023-04-05T15:18:40.344Z,100094.94
2023-04-05T15:21:12.868Z,100090.61
2023-04-05T15:23:45.267Z,100093.87
2023-04-05T15:26:17.734Z,100089.41
2023-04-05T15:28:50.174Z,100087.38
2023-04-05T15:31:22.502Z,100085.62
2023-04-05T15:33:54.736Z,100086.50
2023-04-05T15:36:28.360Z,100094.41
2023-04-05T15:39:01.250Z,100091.81
2023-04-05T15:41:34.835Z,100091.20
2023-04-05T15:44:07.632Z,100091.14
2023-04-05T15:46:40.072Z,100098.48
2023-04-05T15:49:14.700Z,100096.63
2023-04-05T15:51:48.677Z,100097.08
2023-04-05T15:54:21.296Z,100099.11
2023-04-05T15:56:53.503Z,100100.05
2023-04-05T15:59:25.950Z,100101.17
2023-04-05T16:01:58.520Z,100095.82
2023-04-05T16:04:30.967Z,100097.35
2023-04-05T16:07:03.386Z,100099.99
2023-04-05T16:09:35.879Z,100098.64
2023-04-05T16:12:08.554Z,100097.15
2023-04-05T16:14:41.327Z,100097.80
2023-04-05T16:17:13.662Z,100096.06
2023-04-05T16:19:45.921Z,100094.36
2023-04-05T16:22:18.319Z,100103.00
2023-04-05T16:24:51.100Z,100101.11
2023-04-05T16:27:23.351Z,100106.90
2023-04-05T16:29:55.765Z,100107.95
2023-04-05T16:32:28.081Z,100108.30
2023-04-05T16:35:00.639Z,100107.83
2023-04-05T16:37:32.933Z,100109.95
2023-04-05T16:40:05.661Z,100108.55
2023-04-05T16:42:38.028Z,100106.56
2023-04-05T16:45:12.485Z,100107.11
2023-04-05T16:47:44.921Z,100110.45
2023-04-05T16:50:17.225Z,100109.98
2023-04-05T16:52:49.687Z,100108.47
2023-04-05T16:55:22.118Z,100111.14
2023-04-05T16:57:57.060Z,100112.92
2023-04-05T17:00:29.397Z,100113.83
2023-04-05T17:03:02.177Z,100118.67
2023-04-05T17:05:34.882Z,100123.38
2023-04-05T17:08:07.826Z,100128.05
2023-04-05T17:10:40.515Z,100131.72
2023-04-05T17:13:12.885Z,100132.85
2023-04-05T17:15:45.587Z,100129.66
2023-04-05T17:18:18.339Z,100130.59
2023-04-05T17:20:51.248Z,100128.63
2023-04-05T17:23:24.914Z,100130.43
2023-04-05T17:25:58.167Z,100131.21
2023-04-05T17:28:31.756Z,100133.87
2023-04-05T17:31:05.008Z,100136.11
2023-04-05T17:33:37.931Z,100141.03
2023-04-05T17:36:10.591Z,100143.55
2023-04-05T17:38:42.934Z,100144.96
2023-04-05T17:41:16.185Z,100145.16
2023-04-05T17:43:49.358Z,100147.82
2023-04-05T17:46:33.900Z,100151.58
2023-04-05T17:49:13.411Z,100151.07
2023-04-05T17:51:46.158Z,100153.13
2023-04-05T17:54:18.378Z,100154.06
2023-04-05T17:56:52.054Z,100158.09
2023-04-05T17:59:24.415Z,100155.67
2023-04-05T18:01:56.862Z,100155.99
2023-04-05T18:04:30.100Z,100160.51
2023-04-05T18:07:02.822Z,100159.40
2023-04-05T18:09:37.551Z,100163.05
2023-04-05T18:12:10.326Z,100167.41
2023-04-05T18:14:42.790Z,100165.66
2023-04-05T18:17:15.485Z,100169.05
2023-04-05T18:19:49.583Z,100170.08
2023-04-05T18:22:22.076Z,100170.83
2023-04-05T18:24:54.641Z,100172.96
2023-04-05T18:27:27.485Z,100174.95
2023-04-05T18:30:00.276Z,100176.70
2023-04-05T18:32:33.142Z,100179.00
2023-04-05T18:35:06.387Z,100179.15
2023-04-05T18:37:39.121Z,100182.46
2023-04-05T18:40:13.100Z,100187.27
2023-04-05T18:42:46.491Z,100189.98
2023-04-05T18:45:19.085Z,100193.04
2023-04-05T18:47:51.571Z,100191.82
2023-04-05T18:50:24.111Z,100195.38
2023-04-05T18:52:56.340Z,100199.24
2023-04-05T18:55:29.174Z,100201.32
2023-04-05T18:58:02.968Z,100199.88
2023-04-05T19:00:36.172Z,100200.61
2023-04-05T19:03:08.997Z,100202.92
2023-04-05T19:05:41.393Z,100201.61
2023-04-05T19:08:14.447Z,100204.08
2023-04-05T19:10:47.075Z,100205.05
2023-04-05T19:13:19.222Z,100201.17
2023-04-05T19:15:51.509Z,100203.46
2023-04-05T19:18:27.890Z,100200.80
2023-04-05T19:21:03.294Z,100199.92
2023-04-05T19:23:35.660Z,100202.68
2023-04-05T19:26:08.260Z,100203.22
2023-04-05T19:28:40.972Z,100201.37
2023-04-05T19:31:16.757Z,100200.94
2023-04-05T19:33:50.410Z,100197.05
2023-04-05T19:36:22.683Z,100195.96
2023-04-05T19:38:54.937Z,100195.77
2023-04-05T19:41:32.661Z,100199.03
2023-04-05T19:44:11.825Z,100196.55
2023-04-05T19:46:44.213Z,100195.89
2023-04-05T19:49:30.033Z,100194.77
2023-04-05T19:52:02.373Z,100196.55
2023-04-05T19:54:34.733Z,100191.73
2023-04-05T19:57:09.968Z,100194.77
2023-04-05T19:59:42.268Z,100189.92
2023-04-05T20:02:28.650Z,100190.89
2023-04-05T20:05:01.579Z,100188.77
2023-04-05T20:07:34.475Z,100185.77
2023-04-05T20:10:17.253Z,100185.63
2023-04-05T20:12:50.764Z,100187.77
2023-04-05T20:15:37.644Z,100186.76
2023-04-05T20:18:13.284Z,100187.44
2023-04-05T20:20:47.272Z,100189.18
2023-04-05T20:23:23.332Z,100188.52
2023-04-05T20:25:56.416Z,100186.89
2023-04-05T20:28:39.267Z,100186.42
2023-04-05T20:31:14.073Z,100186.66
2023-04-05T20:33:51.426Z,100185.80
2023-04-05T20:36:25.221Z,100180.77
2023-04-05T20:38:57.587Z,100182.91
2023-04-05T20:41:31.574Z,100179.91
2023-04-05T20:44:04.031Z,100178.77
2023-04-05T20:46:36.637Z,100181.15
2023-04-05T20:49:09.461Z,100181.84
2023-04-05T20:51:43.132Z,100181.27
2023-04-05T20:54:16.306Z,100180.80
2023-04-05T20:56:48.545Z,100184.13
2023-04-05T20:59:21.108Z,100186.45
2023-04-05T21:01:53.372Z,100187.60
2023-04-05T21:04:27.471Z,100185.35
2023-04-05T21:07:00.964Z,100186.09
2023-04-05T21:09:33.133Z,100183.96
2023-04-05T21:12:06.171Z,100183.75
2023-04-05T21:14:38.405Z,100184.23
2023-04-05T21:17:10.618Z,100179.58
2023-04-05T21:19:42.906Z,100176.87
2023-04-05T21:22:15.127Z,100180.10
2023-04-05T21:24:47.366Z,100181.34
2023-04-05T21:27:19.694Z,100181.86
2023-04-05T21:29:51.992Z,100184.52
2023-04-05T21:32:24.188Z,100184.95
2023-04-05T21:34:56.428Z,100187.56
2023-04-05T21:37:28.627Z,100183.23
2023-04-05T21:40:02.613Z,100185.16
2023-04-05T21:42:34.985Z,100185.98
2023-04-05T21:45:09.046Z,100187.19
2023-04-05T21:47:41.487Z,100186.95
2023-04-05T21:50:13.919Z,100186.85
2023-04-05T21:52:46.816Z,100185.52
2023-04-05T21:55:19.104Z,100182.95
2023-04-05T21:57:51.701Z,100183.65
2023-04-05T22:00:24.193Z,100182.49
2023-04-05T22:02:56.385Z,100180.65
2023-04-05T22:05:36.982Z,100180.30
2023-04-05T22:08:10.717Z,100180.69
2023-04-05T22:10:43.966Z,100178.62
2023-04-05T22:13:16.237Z,100180.32
2023-04-05T22:15:48.784Z,100181.84
2023-04-05T22:18:20.965Z,100182.09
2023-04-05T22:20:53.164Z,100187.17
2023-04-05T22:23:25.505Z,100189.31
2023-04-05T22:25:57.829Z,100187.10
2023-04-05T22:28:30.108Z,100186.09
2023-04-05T22:31:02.346Z,100185.11
2023-04-05T22:33:34.763Z,100184.34
2023-04-05T22:36:09.412Z,100184.08
2023-04-05T22:38:41.661Z,100182.70
2023-04-05T22:41:13.883Z,100179.94
2023-04-05T22:43:46.073Z,100185.96
2023-04-05T22:46:18.851Z,100179.28
2023-04-05T22:48:51.101Z,100180.73
2023-04-05T22:51:23.341Z,100181.59
2023-04-05T22:53:55.464Z,100179.77
2023-04-05T22:56:27.941Z,100178.24
2023-04-05T22:59:00.148Z,100179.69
2023-04-05T23:01:32.408Z,100179.33
2023-04-05T23:04:04.544Z,100177.02
2023-04-05T23:06:36.722Z,100178.56
2023-04-05T23:09:09.162Z,100175.80
2023-04-05T23:11:41.643Z,100175.70
2023-04-05T23:14:13.841Z,100174.55
2023-04-05T23:16:46.387Z,100173.30
2023-04-05T23:19:18.714Z,100172.81
2023-04-05T23:21:51.015Z,100174.96
2023-04-05T23:24:23.202Z,100169.94
2023-04-05T23:26:55.364Z,100168.34
2023-04-05T23:29:27.713Z,100164.23
2023-04-05T23:31:59.832Z,100163.38
2023-04-05T23:34:32.066Z,100163.56
2023-04-05T23:37:04.263Z,100165.89
2023-04-05T23:39:36.982Z,100165.65
2023-04-05T23:42:09.658Z,100162.52
2023-04-05T23:44:42.227Z,100161.71
2023-04-05T23:47:14.878Z,100164.27
2023-04-05T23:49:47.208Z,100163.35
2023-04-05T23:52:19.351Z,100163.86
2023-04-05T23:54:51.562Z,100163.73
2023-04-05T23:57:24.341Z,100163.28
2023-04-05T23:59:56.826Z,100163.47
